sensor_id;sensor_type;location;lat;lon;timestamp;P1;durP1;ratioP1;P2;durP2;ratioP2
20749;SDS011;10535;50.664;4.564;2023-04-16T00:02:16;7.63;;;3.83;;
20749;SDS011;10535;50.664;4.564;2023-04-16T00:04:42;14.37;;;3.87;;
20749;SDS011;10535;50.664;4.564;2023-04-16T00:07:07;8.87;;;4.47;;
20749;SDS011;10535;50.664;4.564;2023-04-16T00:09:33;12.97;;;5.40;;
20749;SDS011;10535;50.664;4.564;2023-04-16T00:11:59;11.47;;;4.57;;
20749;SDS011;10535;50.664;4.564;2023-04-16T00:14:25;9.33;;;3.90;;
20749;SDS011;10535;50.664;4.564;2023-04-16T00:16:50;4.07;;;3.27;;
20749;SDS011;10535;50.664;4.564;2023-04-16T00:19:16;7.70;;;4.13;;
20749;SDS011;10535;50.664;4.564;2023-04-16T00:21:42;4.10;;;3.20;;
20749;SDS011;10535;50.664;4.564;2023-04-16T00:24:07;4.97;;;3.20;;
20749;SDS011;10535;50.664;4.564;2023-04-16T00:26:33;9.20;;;4.17;;
20749;SDS011;10535;50.664;4.564;2023-04-16T00:28:58;5.93;;;3.50;;
20749;SDS011;10535;50.664;4.564;2023-04-16T00:31:26;5.43;;;3.03;;
20749;SDS011;10535;50.664;4.564;2023-04-16T00:33:52;4.47;;;3.53;;
20749;SDS011;10535;50.664;4.564;2023-04-16T00:36:18;5.10;;;2.97;;
20749;SDS011;10535;50.664;4.564;2023-04-16T00:38:44;9.07;;;3.30;;
20749;SDS011;10535;50.664;4.564;2023-04-16T00:41:09;9.40;;;3.30;;
20749;SDS011;10535;50.664;4.564;2023-04-16T00:43:35;5.60;;;2.53;;
20749;SDS011;10535;50.664;4.564;2023-04-16T00:46:01;4.97;;;2.50;;
20749;SDS011;10535;50.664;4.564;2023-04-16T00:48:30;5.07;;;2.83;;
20749;SDS011;10535;50.664;4.564;2023-04-16T00:50:57;4.43;;;2.40;;
20749;SDS011;10535;50.664;4.564;2023-04-16T00:53:24;4.30;;;2.60;;
20749;SDS011;10535;50.664;4.564;2023-04-16T00:55:50;3.60;;;2.63;;
20749;SDS011;10535;50.664;4.564;2023-04-16T00:58:16;5.40;;;2.97;;
20749;SDS011;10535;50.664;4.564;2023-04-16T01:00:42;5.43;;;3.10;;
20749;SDS011;10535;50.664;4.564;2023-04-16T01:03:07;6.17;;;2.90;;
20749;SDS011;10535;50.664;4.564;2023-04-16T01:05:34;5.60;;;3.57;;
20749;SDS011;10535;50.664;4.564;2023-04-16T01:08:01;6.50;;;3.40;;
20749;SDS011;10535;50.664;4.564;2023-04-16T01:10:26;9.13;;;4.10;;
20749;SDS011;10535;50.664;4.564;2023-04-16T01:12:52;5.13;;;3.80;;
20749;SDS011;10535;50.664;4.564;2023-04-16T01:15:17;7.77;;;4.60;;
20749;SDS011;10535;50.664;4.564;2023-04-16T01:17:46;8.43;;;3.90;;
20749;SDS011;10535;50.664;4.564;2023-04-16T01:20:12;7.47;;;4.30;;
20749;SDS011;10535;50.664;4.564;2023-04-16T01:22:38;7.37;;;4.10;;
20749;SDS011;10535;50.664;4.564;2023-04-16T01:25:04;11.93;;;3.90;;
20749;SDS011;10535;50.664;4.564;2023-04-16T01:27:30;8.23;;;3.90;;
20749;SDS011;10535;50.664;4.564;2023-04-16T01:29:56;9.17;;;4.07;;
20749;SDS011;10535;50.664;4.564;2023-04-16T01:32:22;4.90;;;4.20;;
20749;SDS011;10535;50.664;4.564;2023-04-16T01:34:47;8.90;;;4.83;;
20749;SDS011;10535;50.664;4.564;2023-04-16T01:37:13;6.83;;;4.67;;
20749;SDS011;10535;50.664;4.564;2023-04-16T01:39:39;10.87;;;5.73;;
20749;SDS011;10535;50.664;4.564;2023-04-16T01:42:04;10.37;;;5.30;;
20749;SDS011;10535;50.664;4.564;2023-04-16T01:44:30;4.53;;;4.10;;
20749;SDS011;10535;50.664;4.564;2023-04-16T01:46:55;8.37;;;5.23;;
20749;SDS011;10535;50.664;4.564;2023-04-16T01:49:21;9.20;;;5.13;;
20749;SDS011;10535;50.664;4.564;2023-04-16T01:51:47;9.73;;;5.70;;
20749;SDS011;10535;50.664;4.564;2023-04-16T01:54:13;8.60;;;5.30;;
20749;SDS011;10535;50.664;4.564;2023-04-16T01:56:38;12.60;;;5.50;;
20749;SDS011;10535;50.664;4.564;2023-04-16T01:59:04;12.37;;;5.43;;
20749;SDS011;10535;50.664;4.564;2023-04-16T02:01:29;11.47;;;6.07;;
20749;SDS011;10535;50.664;4.564;2023-04-16T02:03:55;9.37;;;5.70;;
20749;SDS011;10535;50.664;4.564;2023-04-16T02:06:21;6.90;;;4.33;;
20749;SDS011;10535;50.664;4.564;2023-04-16T02:08:47;7.83;;;4.97;;
20749;SDS011;10535;50.664;4.564;2023-04-16T02:11:13;5.93;;;4.03;;
20749;SDS011;10535;50.664;4.564;2023-04-16T02:13:39;8.20;;;4.40;;
20749;SDS011;10535;50.664;4.564;2023-04-16T02:16:06;8.67;;;4.53;;
20749;SDS011;10535;50.664;4.564;2023-04-16T02:18:33;12.10;;;4.20;;
20749;SDS011;10535;50.664;4.564;2023-04-16T02:20:58;8.17;;;4.20;;
20749;SDS011;10535;50.664;4.564;2023-04-16T02:23:24;5.30;;;3.47;;
20749;SDS011;10535;50.664;4.564;2023-04-16T02:25:51;5.07;;;3.07;;
20749;SDS011;10535;50.664;4.564;2023-04-16T02:28:16;7.77;;;3.20;;
20749;SDS011;10535;50.664;4.564;2023-04-16T02:30:42;5.70;;;3.43;;
20749;SDS011;10535;50.664;4.564;2023-04-16T02:33:09;5.03;;;2.60;;
20749;SDS011;10535;50.664;4.564;2023-04-16T02:35:36;3.53;;;2.73;;
20749;SDS011;10535;50.664;4.564;2023-04-16T02:38:03;3.60;;;2.70;;
20749;SDS011;10535;50.664;4.564;2023-04-16T02:40:29;4.33;;;3.40;;
20749;SDS011;10535;50.664;4.564;2023-04-16T02:42:55;5.57;;;3.50;;
20749;SDS011;10535;50.664;4.564;2023-04-16T02:45:21;7.80;;;3.50;;
20749;SDS011;10535;50.664;4.564;2023-04-16T02:47:48;6.97;;;3.60;;
20749;SDS011;10535;50.664;4.564;2023-04-16T02:50:14;6.17;;;4.20;;
20749;SDS011;10535;50.664;4.564;2023-04-16T02:52:40;8.80;;;4.00;;
20749;SDS011;10535;50.664;4.564;2023-04-16T02:55:06;6.43;;;4.07;;
20749;SDS011;10535;50.664;4.564;2023-04-16T02:57:32;9.67;;;4.10;;
20749;SDS011;10535;50.664;4.564;2023-04-16T02:59:58;4.10;;;3.40;;
20749;SDS011;10535;50.664;4.564;2023-04-16T03:02:23;7.63;;;3.90;;
20749;SDS011;10535;50.664;4.564;2023-04-16T03:04:49;10.37;;;4.27;;
20749;SDS011;10535;50.664;4.564;2023-04-16T03:07:15;18.03;;;4.63;;
20749;SDS011;10535;50.664;4.564;2023-04-16T03:09:42;6.13;;;3.90;;
20749;SDS011;10535;50.664;4.564;2023-04-16T03:12:08;3.97;;;3.47;;
20749;SDS011;10535;50.664;4.564;2023-04-16T03:14:34;10.17;;;4.17;;
20749;SDS011;10535;50.664;4.564;2023-04-16T03:17:01;6.37;;;4.47;;
20749;SDS011;10535;50.664;4.564;2023-04-16T03:19:26;13.67;;;4.80;;
20749;SDS011;10535;50.664;4.564;2023-04-16T03:21:52;9.87;;;4.23;;
20749;SDS011;10535;50.664;4.564;2023-04-16T03:24:17;13.73;;;5.17;;
20749;SDS011;10535;50.664;4.564;2023-04-16T03:26:43;5.93;;;3.70;;
20749;SDS011;10535;50.664;4.564;2023-04-16T03:29:08;15.20;;;5.37;;
20749;SDS011;10535;50.664;4.564;2023-04-16T03:31:34;7.93;;;4.90;;
20749;SDS011;10535;50.664;4.564;2023-04-16T03:34:00;8.07;;;4.67;;
20749;SDS011;10535;50.664;4.564;2023-04-16T03:36:25;10.00;;;4.63;;
20749;SDS011;10535;50.664;4.564;2023-04-16T03:38:51;6.97;;;4.40;;
20749;SDS011;10535;50.664;4.564;2023-04-16T03:41:17;6.90;;;4.23;;
20749;SDS011;10535;50.664;4.564;2023-04-16T03:43:43;17.17;;;4.73;;
20749;SDS011;10535;50.664;4.564;2023-04-16T03:46:08;6.17;;;3.47;;
20749;SDS011;10535;50.664;4.564;2023-04-16T03:48:34;8.30;;;4.73;;
20749;SDS011;10535;50.664;4.564;2023-04-16T03:51:00;5.50;;;3.53;;
20749;SDS011;10535;50.664;4.564;2023-04-16T03:53:26;15.87;;;4.77;;
20749;SDS011;10535;50.664;4.564;2023-04-16T03:55:51;5.20;;;4.10;;
20749;SDS011;10535;50.664;4.564;2023-04-16T03:58:17;10.13;;;5.23;;
20749;SDS011;10535;50.664;4.564;2023-04-16T04:00:43;10.20;;;5.33;;
20749;SDS011;10535;50.664;4.564;2023-04-16T04:03:09;9.73;;;4.10;;
20749;SDS011;10535;50.664;4.564;2023-04-16T04:05:39;10.97;;;4.00;;
20749;SDS011;10535;50.664;4.564;2023-04-16T04:08:05;8.80;;;5.10;;
20749;SDS011;10535;50.664;4.564;2023-04-16T04:10:31;6.37;;;4.80;;
20749;SDS011;10535;50.664;4.564;2023-04-16T04:12:58;10.50;;;4.50;;
20749;SDS011;10535;50.664;4.564;2023-04-16T04:15:24;5.73;;;4.27;;
20749;SDS011;10535;50.664;4.564;2023-04-16T04:17:50;7.50;;;3.93;;
20749;SDS011;10535;50.664;4.564;2023-04-16T04:20:16;7.17;;;3.83;;
20749;SDS011;10535;50.664;4.564;2023-04-16T04:22:41;8.87;;;4.70;;
20749;SDS011;10535;50.664;4.564;2023-04-16T04:25:08;5.67;;;3.57;;
20749;SDS011;10535;50.664;4.564;2023-04-16T04:27:34;5.77;;;3.97;;
20749;SDS011;10535;50.664;4.564;2023-04-16T04:30:00;6.47;;;3.50;;
20749;SDS011;10535;50.664;4.564;2023-04-16T04:32:26;7.17;;;3.83;;
20749;SDS011;10535;50.664;4.564;2023-04-16T04:34:52;9.40;;;3.87;;
20749;SDS011;10535;50.664;4.564;2023-04-16T04:37:17;5.80;;;4.17;;
20749;SDS011;10535;50.664;4.564;2023-04-16T04:39:43;5.33;;;3.80;;
20749;SDS011;10535;50.664;4.564;2023-04-16T04:42:08;9.03;;;4.13;;
20749;SDS011;10535;50.664;4.564;2023-04-16T04:44:34;7.93;;;3.80;;
20749;SDS011;10535;50.664;4.564;2023-04-16T04:47:00;7.00;;;3.57;;
20749;SDS011;10535;50.664;4.564;2023-04-16T04:49:25;4.67;;;3.27;;
20749;SDS011;10535;50.664;4.564;2023-04-16T04:51:51;8.70;;;3.00;;
20749;SDS011;10535;50.664;4.564;2023-04-16T04:54:17;7.87;;;3.03;;
20749;SDS011;10535;50.664;4.564;2023-04-16T04:56:42;7.87;;;3.10;;
20749;SDS011;10535;50.664;4.564;2023-04-16T04:59:11;4.30;;;2.50;;
20749;SDS011;10535;50.664;4.564;2023-04-16T05:01:37;7.13;;;3.03;;
20749;SDS011;10535;50.664;4.564;2023-04-16T05:04:02;4.63;;;2.80;;
20749;SDS011;10535;50.664;4.564;2023-04-16T05:06:28;4.50;;;3.00;;
20749;SDS011;10535;50.664;4.564;2023-04-16T05:08:54;5.27;;;3.20;;
20749;SDS011;10535;50.664;4.564;2023-04-16T05:11:19;6.00;;;3.40;;
20749;SDS011;10535;50.664;4.564;2023-04-16T05:13:45;6.73;;;3.50;;
20749;SDS011;10535;50.664;4.564;2023-04-16T05:16:11;5.03;;;2.87;;
20749;SDS011;10535;50.664;4.564;2023-04-16T05:18:36;8.37;;;3.43;;
20749;SDS011;10535;50.664;4.564;2023-04-16T05:21:03;3.53;;;2.73;;
20749;SDS011;10535;50.664;4.564;2023-04-16T05:23:29;7.00;;;3.17;;
20749;SDS011;10535;50.664;4.564;2023-04-16T05:25:55;6.27;;;3.43;;
20749;SDS011;10535;50.664;4.564;2023-04-16T05:28:20;11.27;;;3.83;;
20749;SDS011;10535;50.664;4.564;2023-04-16T05:30:46;6.83;;;3.10;;
20749;SDS011;10535;50.664;4.564;2023-04-16T05:33:35;6.37;;;3.47;;
20749;SDS011;10535;50.664;4.564;2023-04-16T05:36:01;10.83;;;4.90;;
20749;SDS011;10535;50.664;4.564;2023-04-16T05:38:29;6.60;;;3.97;;
20749;SDS011;10535;50.664;4.564;2023-04-16T05:40:55;4.73;;;3.13;;
20749;SDS011;10535;50.664;4.564;2023-04-16T05:43:21;8.73;;;3.63;;
20749;SDS011;10535;50.664;4.564;2023-04-16T05:45:47;11.10;;;4.67;;
20749;SDS011;10535;50.664;4.564;2023-04-16T05:48:13;7.63;;;4.13;;
20749;SDS011;10535;50.664;4.564;2023-04-16T05:50:38;12.07;;;4.43;;
20749;SDS011;10535;50.664;4.564;2023-04-16T05:53:06;8.63;;;4.07;;
20749;SDS011;10535;50.664;4.564;2023-04-16T05:55:34;11.73;;;4.97;;
20749;SDS011;10535;50.664;4.564;2023-04-16T05:58:21;8.73;;;3.77;;
20749;SDS011;10535;50.664;4.564;2023-04-16T06:00:47;10.87;;;3.67;;
20749;SDS011;10535;50.664;4.564;2023-04-16T06:03:14;6.53;;;3.80;;
20749;SDS011;10535;50.664;4.564;2023-04-16T06:05:41;6.23;;;3.53;;
20749;SDS011;10535;50.664;4.564;2023-04-16T06:08:09;6.83;;;4.50;;
20749;SDS011;10535;50.664;4.564;2023-04-16T06:10:35;6.23;;;3.53;;
20749;SDS011;10535;50.664;4.564;2023-04-16T06:13:02;8.10;;;4.60;;
20749;SDS011;10535;50.664;4.564;2023-04-16T06:15:51;5.00;;;3.50;;
20749;SDS011;10535;50.664;4.564;2023-04-16T06:18:16;5.13;;;3.80;;
20749;SDS011;10535;50.664;4.564;2023-04-16T06:20:42;5.07;;;3.10;;
20749;SDS011;10535;50.664;4.564;2023-04-16T06:23:07;7.77;;;4.17;;
20749;SDS011;10535;50.664;4.564;2023-04-16T06:25:33;8.20;;;4.03;;
20749;SDS011;10535;50.664;4.564;2023-04-16T06:27:58;9.90;;;3.87;;
20749;SDS011;10535;50.664;4.564;2023-04-16T06:30:24;10.07;;;4.20;;
20749;SDS011;10535;50.664;4.564;2023-04-16T06:32:50;13.53;;;5.03;;
20749;SDS011;10535;50.664;4.564;2023-04-16T06:35:16;7.03;;;3.17;;
20749;SDS011;10535;50.664;4.564;2023-04-16T06:37:44;8.70;;;3.83;;
20749;SDS011;10535;50.664;4.564;2023-04-16T06:40:11;8.17;;;3.43;;
20749;SDS011;10535;50.664;4.564;2023-04-16T06:42:37;8.37;;;4.17;;
20749;SDS011;10535;50.664;4.564;2023-04-16T06:45:24;5.17;;;3.43;;
20749;SDS011;10535;50.664;4.564;2023-04-16T06:47:50;7.70;;;3.63;;
20749;SDS011;10535;50.664;4.564;2023-04-16T06:50:16;6.27;;;3.77;;
20749;SDS011;10535;50.664;4.564;2023-04-16T06:52:42;7.97;;;3.70;;
20749;SDS011;10535;50.664;4.564;2023-04-16T06:55:08;7.10;;;3.37;;
20749;SDS011;10535;50.664;4.564;2023-04-16T06:57:34;9.67;;;4.20;;
20749;SDS011;10535;50.664;4.564;2023-04-16T07:00:00;9.37;;;3.70;;
20749;SDS011;10535;50.664;4.564;2023-04-16T07:02:27;7.43;;;3.90;;
20749;SDS011;10535;50.664;4.564;2023-04-16T07:04:52;5.47;;;3.53;;
20749;SDS011;10535;50.664;4.564;2023-04-16T07:07:18;10.37;;;3.20;;
20749;SDS011;10535;50.664;4.564;2023-04-16T07:09:44;7.23;;;3.60;;
20749;SDS011;10535;50.664;4.564;2023-04-16T07:12:09;4.83;;;3.03;;
20749;SDS011;10535;50.664;4.564;2023-04-16T07:14:35;6.33;;;3.63;;
20749;SDS011;10535;50.664;4.564;2023-04-16T07:17:01;12.37;;;3.83;;
20749;SDS011;10535;50.664;4.564;2023-04-16T07:19:26;7.97;;;3.57;;
20749;SDS011;10535;50.664;4.564;2023-04-16T07:21:56;5.93;;;3.30;;
20749;SDS011;10535;50.664;4.564;2023-04-16T07:24:22;8.10;;;4.10;;
20749;SDS011;10535;50.664;4.564;2023-04-16T07:26:48;5.33;;;3.60;;
20749;SDS011;10535;50.664;4.564;2023-04-16T07:29:13;9.13;;;3.70;;
20749;SDS011;10535;50.664;4.564;2023-04-16T07:31:39;10.20;;;4.20;;
20749;SDS011;10535;50.664;4.564;2023-04-16T07:34:05;5.90;;;3.83;;
20749;SDS011;10535;50.664;4.564;2023-04-16T07:36:30;8.10;;;3.30;;
20749;SDS011;10535;50.664;4.564;2023-04-16T07:38:56;9.40;;;3.87;;
20749;SDS011;10535;50.664;4.564;2023-04-16T07:41:22;7.60;;;4.50;;
20749;SDS011;10535;50.664;4.564;2023-04-16T07:43:49;6.90;;;3.27;;
20749;SDS011;10535;50.664;4.564;2023-04-16T07:46:15;7.37;;;3.20;;
20749;SDS011;10535;50.664;4.564;2023-04-16T07:48:44;6.70;;;3.83;;
20749;SDS011;10535;50.664;4.564;2023-04-16T07:51:11;8.37;;;3.63;;
20749;SDS011;10535;50.664;4.564;2023-04-16T07:53:36;5.43;;;4.10;;
20749;SDS011;10535;50.664;4.564;2023-04-16T07:56:02;5.93;;;3.83;;
20749;SDS011;10535;50.664;4.564;2023-04-16T07:58:27;11.27;;;4.67;;
20749;SDS011;10535;50.664;4.564;2023-04-16T08:00:53;7.43;;;4.80;;
20749;SDS011;10535;50.664;4.564;2023-04-16T08:03:19;6.23;;;4.63;;
20749;SDS011;10535;50.664;4.564;2023-04-16T08:05:45;7.93;;;4.43;;
20749;SDS011;10535;50.664;4.564;2023-04-16T08:08:13;12.07;;;5.83;;
20749;SDS011;10535;50.664;4.564;2023-04-16T08:10:39;8.83;;;4.97;;
20749;SDS011;10535;50.664;4.564;2023-04-16T08:13:05;12.67;;;5.30;;
20749;SDS011;10535;50.664;4.564;2023-04-16T08:15:30;13.43;;;5.67;;
20749;SDS011;10535;50.664;4.564;2023-04-16T08:17:56;9.47;;;5.40;;
20749;SDS011;10535;50.664;4.564;2023-04-16T08:20:22;13.07;;;5.67;;
20749;SDS011;10535;50.664;4.564;2023-04-16T08:22:51;12.00;;;5.43;;
20749;SDS011;10535;50.664;4.564;2023-04-16T08:25:23;17.80;;;6.67;;
20749;SDS011;10535;50.664;4.564;2023-04-16T08:27:48;13.77;;;5.77;;
20749;SDS011;10535;50.664;4.564;2023-04-16T08:30:14;20.77;;;6.27;;
20749;SDS011;10535;50.664;4.564;2023-04-16T08:32:41;16.70;;;7.37;;
20749;SDS011;10535;50.664;4.564;2023-04-16T08:35:07;16.27;;;6.33;;
20749;SDS011;10535;50.664;4.564;2023-04-16T08:37:34;17.80;;;7.63;;
20749;SDS011;10535;50.664;4.564;2023-04-16T08:39:59;18.37;;;7.23;;
20749;SDS011;10535;50.664;4.564;2023-04-16T08:42:39;17.27;;;5.20;;
20749;SDS011;10535;50.664;4.564;2023-04-16T08:45:16;14.43;;;6.70;;
20749;SDS011;10535;50.664;4.564;2023-04-16T08:47:46;18.13;;;7.70;;
20749;SDS011;10535;50.664;4.564;2023-04-16T08:50:13;11.33;;;5.90;;
20749;SDS011;10535;50.664;4.564;2023-04-16T08:52:49;11.90;;;6.47;;
20749;SDS011;10535;50.664;4.564;2023-04-16T08:55:17;12.57;;;6.50;;
20749;SDS011;10535;50.664;4.564;2023-04-16T08:57:50;15.40;;;8.20;;
20749;SDS011;10535;50.664;4.564;2023-04-16T09:00:18;14.97;;;6.90;;
20749;SDS011;10535;50.664;4.564;2023-04-16T09:02:45;18.20;;;7.07;;
20749;SDS011;10535;50.664;4.564;2023-04-16T09:05:13;12.73;;;6.80;;
20749;SDS011;10535;50.664;4.564;2023-04-16T09:07:43;20.80;;;8.30;;
20749;SDS011;10535;50.664;4.564;2023-04-16T09:10:11;19.87;;;6.13;;
20749;SDS011;10535;50.664;4.564;2023-04-16T09:12:37;14.50;;;8.97;;
20749;SDS011;10535;50.664;4.564;2023-04-16T09:15:05;13.07;;;6.77;;
20749;SDS011;10535;50.664;4.564;2023-04-16T09:17:31;25.20;;;8.63;;
20749;SDS011;10535;50.664;4.564;2023-04-16T09:19:58;17.07;;;6.80;;
20749;SDS011;10535;50.664;4.564;2023-04-16T09:22:25;13.40;;;6.87;;
20749;SDS011;10535;50.664;4.564;2023-04-16T09:24:51;21.83;;;8.13;;
20749;SDS011;10535;50.664;4.564;2023-04-16T09:27:16;14.63;;;7.93;;
20749;SDS011;10535;50.664;4.564;2023-04-16T09:29:42;15.47;;;7.53;;
20749;SDS011;10535;50.664;4.564;2023-04-16T09:32:09;15.33;;;8.27;;
20749;SDS011;10535;50.664;4.564;2023-04-16T09:37:26;13.73;;;7.73;;
20749;SDS011;10535;50.664;4.564;2023-04-16T09:39:56;16.47;;;8.20;;
20749;SDS011;10535;50.664;4.564;2023-04-16T09:42:28;19.70;;;8.60;;
20749;SDS011;10535;50.664;4.564;2023-04-16T09:44:55;24.73;;;10.37;;
20749;SDS011;10535;50.664;4.564;2023-04-16T09:47:22;18.43;;;8.97;;
20749;SDS011;10535;50.664;4.564;2023-04-16T09:49:49;15.70;;;9.10;;
20749;SDS011;10535;50.664;4.564;2023-04-16T09:52:16;21.67;;;9.93;;
20749;SDS011;10535;50.664;4.564;2023-04-16T09:54:49;20.73;;;10.17;;
20749;SDS011;10535;50.664;4.564;2023-04-16T09:57:18;17.60;;;9.03;;
20749;SDS011;10535;50.664;4.564;2023-04-16T09:59:46;18.70;;;8.97;;
20749;SDS011;10535;50.664;4.564;2023-04-16T10:02:12;25.27;;;9.27;;
20749;SDS011;10535;50.664;4.564;2023-04-16T10:04:44;33.27;;;10.50;;
20749;SDS011;10535;50.664;4.564;2023-04-16T10:07:14;22.03;;;9.87;;
20749;SDS011;10535;50.664;4.564;2023-04-16T10:09:41;43.47;;;10.87;;
20749;SDS011;10535;50.664;4.564;2023-04-16T10:12:07;20.27;;;10.23;;
20749;SDS011;10535;50.664;4.564;2023-04-16T10:14:37;25.27;;;10.43;;
20749;SDS011;10535;50.664;4.564;2023-04-16T10:17:06;26.17;;;10.60;;
20749;SDS011;10535;50.664;4.564;2023-04-16T10:19:32;25.70;;;10.50;;
20749;SDS011;10535;50.664;4.564;2023-04-16T10:21:59;23.63;;;9.83;;
20749;SDS011;10535;50.664;4.564;2023-04-16T10:24:30;25.73;;;10.70;;
20749;SDS011;10535;50.664;4.564;2023-04-16T10:26:57;29.20;;;11.87;;
20749;SDS011;10535;50.664;4.564;2023-04-16T10:29:24;16.50;;;9.17;;
20749;SDS011;10535;50.664;4.564;2023-04-16T10:31:56;20.90;;;10.03;;
20749;SDS011;10535;50.664;4.564;2023-04-16T10:34:22;15.47;;;9.80;;
20749;SDS011;10535;50.664;4.564;2023-04-16T10:36:50;25.47;;;11.00;;
20749;SDS011;10535;50.664;4.564;2023-04-16T10:39:23;25.57;;;10.30;;
20749;SDS011;10535;50.664;4.564;2023-04-16T10:42:06;22.03;;;10.17;;
20749;SDS011;10535;50.664;4.564;2023-04-16T10:44:33;25.27;;;12.10;;
20749;SDS011;10535;50.664;4.564;2023-04-16T10:46:59;17.63;;;8.47;;
20749;SDS011;10535;50.664;4.564;2023-04-16T10:49:25;22.50;;;10.50;;
20749;SDS011;10535;50.664;4.564;2023-04-16T10:51:58;25.23;;;9.40;;
20749;SDS011;10535;50.664;4.564;2023-04-16T10:54:27;30.33;;;12.80;;
20749;SDS011;10535;50.664;4.564;2023-04-16T10:57:36;25.40;;;11.23;;
20749;SDS011;10535;50.664;4.564;2023-04-16T10:59:44;28.87;;;10.97;;
20749;SDS011;10535;50.664;4.564;2023-04-16T11:02:14;23.73;;;11.53;;
20749;SDS011;10535;50.664;4.564;2023-04-16T11:04:45;23.17;;;10.97;;
20749;SDS011;10535;50.664;4.564;2023-04-16T11:15:00;26.43;;;11.43;;
20749;SDS011;10535;50.664;4.564;2023-04-16T11:17:41;21.17;;;10.83;;
20749;SDS011;10535;50.664;4.564;2023-04-16T11:20:09;23.80;;;10.27;;
20749;SDS011;10535;50.664;4.564;2023-04-16T11:22:42;18.73;;;9.73;;
20749;SDS011;10535;50.664;4.564;2023-04-16T11:25:09;16.53;;;9.23;;
20749;SDS011;10535;50.664;4.564;2023-04-16T11:27:35;18.93;;;8.27;;
20749;SDS011;10535;50.664;4.564;2023-04-16T11:30:05;23.13;;;9.30;;
20749;SDS011;10535;50.664;4.564;2023-04-16T11:32:35;19.60;;;9.67;;
20749;SDS011;10535;50.664;4.564;2023-04-16T11:35:02;18.00;;;8.97;;
20749;SDS011;10535;50.664;4.564;2023-04-16T11:37:49;18.17;;;8.97;;
20749;SDS011;10535;50.664;4.564;2023-04-16T11:40:20;24.40;;;10.07;;
20749;SDS011;10535;50.664;4.564;2023-04-16T11:42:46;23.27;;;9.27;;
20749;SDS011;10535;50.664;4.564;2023-04-16T11:45:11;23.13;;;9.77;;
20749;SDS011;10535;50.664;4.564;2023-04-16T11:52:49;20.00;;;8.77;;
20749;SDS011;10535;50.664;4.564;2023-04-16T11:55:15;18.90;;;7.90;;
20749;SDS011;10535;50.664;4.564;2023-04-16T11:57:41;20.57;;;9.03;;
20749;SDS011;10535;50.664;4.564;2023-04-16T12:00:07;20.53;;;10.03;;
20749;SDS011;10535;50.664;4.564;2023-04-16T12:02:44;20.97;;;8.43;;
20749;SDS011;10535;50.664;4.564;2023-04-16T12:08:06;17.93;;;8.50;;
20749;SDS011;10535;50.664;4.564;2023-04-16T12:10:35;18.03;;;9.50;;
20749;SDS011;10535;50.664;4.564;2023-04-16T12:13:11;23.30;;;9.97;;
20749;SDS011;10535;50.664;4.564;2023-04-16T12:18:15;22.80;;;10.47;;
20749;SDS011;10535;50.664;4.564;2023-04-16T12:20:41;19.37;;;9.80;;
20749;SDS011;10535;50.664;4.564;2023-04-16T12:23:08;18.30;;;8.77;;
20749;SDS011;10535;50.664;4.564;2023-04-16T12:25:35;26.67;;;10.60;;
20749;SDS011;10535;50.664;4.564;2023-04-16T12:28:01;15.17;;;8.90;;
20749;SDS011;10535;50.664;4.564;2023-04-16T12:30:27;17.13;;;10.37;;
20749;SDS011;10535;50.664;4.564;2023-04-16T12:33:16;19.47;;;9.37;;
20749;SDS011;10535;50.664;4.564;2023-04-16T12:35:43;25.97;;;10.23;;
20749;SDS011;10535;50.664;4.564;2023-04-16T12:38:09;19.70;;;9.83;;
20749;SDS011;10535;50.664;4.564;2023-04-16T12:40:35;17.07;;;7.07;;
20749;SDS011;10535;50.664;4.564;2023-04-16T12:43:01;22.67;;;10.40;;
20749;SDS011;10535;50.664;4.564;2023-04-16T12:45:27;17.73;;;9.30;;
20749;SDS011;10535;50.664;4.564;2023-04-16T12:47:53;22.13;;;9.47;;
20749;SDS011;10535;50.664;4.564;2023-04-16T12:50:19;18.90;;;10.60;;
20749;SDS011;10535;50.664;4.564;2023-04-16T12:52:45;26.47;;;10.93;;
20749;SDS011;10535;50.664;4.564;2023-04-16T12:55:11;20.20;;;10.77;;
20749;SDS011;10535;50.664;4.564;2023-04-16T12:57:38;19.07;;;8.77;;
20749;SDS011;10535;50.664;4.564;2023-04-16T13:00:04;21.80;;;11.43;;
20749;SDS011;10535;50.664;4.564;2023-04-16T13:02:30;26.30;;;10.40;;
20749;SDS011;10535;50.664;4.564;2023-04-16T13:04:56;23.87;;;10.73;;
20749;SDS011;10535;50.664;4.564;2023-04-16T13:07:23;21.70;;;10.50;;
20749;SDS011;10535;50.664;4.564;2023-04-16T13:09:50;19.03;;;10.53;;
20749;SDS011;10535;50.664;4.564;2023-04-16T13:12:16;22.47;;;11.07;;
20749;SDS011;10535;50.664;4.564;2023-04-16T13:14:42;18.57;;;9.43;;
20749;SDS011;10535;50.664;4.564;2023-04-16T13:17:08;16.10;;;9.30;;
20749;SDS011;10535;50.664;4.564;2023-04-16T13:19:34;17.20;;;8.60;;
20749;SDS011;10535;50.664;4.564;2023-04-16T13:21:59;25.40;;;11.30;;
20749;SDS011;10535;50.664;4.564;2023-04-16T13:24:26;18.20;;;8.97;;
20749;SDS011;10535;50.664;4.564;2023-04-16T13:26:52;23.37;;;11.50;;
20749;SDS011;10535;50.664;4.564;2023-04-16T13:29:18;20.00;;;9.23;;
20749;SDS011;10535;50.664;4.564;2023-04-16T13:31:44;20.50;;;9.90;;
20749;SDS011;10535;50.664;4.564;2023-04-16T13:34:10;16.67;;;9.30;;
20749;SDS011;10535;50.664;4.564;2023-04-16T13:36:36;20.07;;;10.73;;
20749;SDS011;10535;50.664;4.564;2023-04-16T13:39:02;24.03;;;12.00;;
20749;SDS011;10535;50.664;4.564;2023-04-16T13:41:35;26.30;;;11.13;;
20749;SDS011;10535;50.664;4.564;2023-04-16T13:44:04;19.83;;;10.67;;
20749;SDS011;10535;50.664;4.564;2023-04-16T13:46:30;17.77;;;9.47;;
20749;SDS011;10535;50.664;4.564;2023-04-16T13:48:56;27.87;;;12.03;;
20749;SDS011;10535;50.664;4.564;2023-04-16T13:51:22;24.77;;;13.40;;
20749;SDS011;10535;50.664;4.564;2023-04-16T13:53:48;22.27;;;11.63;;
20749;SDS011;10535;50.664;4.564;2023-04-16T13:56:14;27.73;;;13.47;;
20749;SDS011;10535;50.664;4.564;2023-04-16T13:58:40;20.00;;;11.13;;
20749;SDS011;10535;50.664;4.564;2023-04-16T14:01:06;27.90;;;11.87;;
20749;SDS011;10535;50.664;4.564;2023-04-16T14:03:33;20.60;;;11.17;;
20749;SDS011;10535;50.664;4.564;2023-04-16T14:06:01;20.87;;;10.17;;
20749;SDS011;10535;50.664;4.564;2023-04-16T14:08:27;23.50;;;11.60;;
20749;SDS011;10535;50.664;4.564;2023-04-16T14:10:54;24.80;;;12.30;;
20749;SDS011;10535;50.664;4.564;2023-04-16T14:13:21;22.67;;;11.93;;
20749;SDS011;10535;50.664;4.564;2023-04-16T14:15:47;28.13;;;11.60;;
20749;SDS011;10535;50.664;4.564;2023-04-16T14:18:13;22.33;;;12.07;;
20749;SDS011;10535;50.664;4.564;2023-04-16T14:20:39;22.80;;;12.10;;
20749;SDS011;10535;50.664;4.564;2023-04-16T14:23:04;22.63;;;11.90;;
20749;SDS011;10535;50.664;4.564;2023-04-16T14:25:31;25.10;;;11.93;;
20749;SDS011;10535;50.664;4.564;2023-04-16T14:28:00;24.07;;;13.40;;
20749;SDS011;10535;50.664;4.564;2023-04-16T14:30:26;25.53;;;12.53;;
20749;SDS011;10535;50.664;4.564;2023-04-16T14:32:51;30.20;;;13.83;;
20749;SDS011;10535;50.664;4.564;2023-04-16T14:35:17;25.57;;;12.83;;
20749;SDS011;10535;50.664;4.564;2023-04-16T14:37:43;26.87;;;13.10;;
20749;SDS011;10535;50.664;4.564;2023-04-16T14:40:09;24.53;;;12.43;;
20749;SDS011;10535;50.664;4.564;2023-04-16T14:42:36;26.57;;;12.67;;
20749;SDS011;10535;50.664;4.564;2023-04-16T14:45:02;24.13;;;11.70;;
20749;SDS011;10535;50.664;4.564;2023-04-16T14:47:30;30.27;;;13.60;;
20749;SDS011;10535;50.664;4.564;2023-04-16T14:49:57;20.60;;;12.77;;
20749;SDS011;10535;50.664;4.564;2023-04-16T14:52:23;26.37;;;13.33;;
20749;SDS011;10535;50.664;4.564;2023-04-16T14:54:51;26.53;;;13.43;;
20749;SDS011;10535;50.664;4.564;2023-04-16T14:57:19;26.77;;;13.77;;
20749;SDS011;10535;50.664;4.564;2023-04-16T14:59:45;21.00;;;10.93;;